TimeCDT,TemperatureF,Dew PointF,Humidity,Sea Level PressureIn,VisibilityMPH,Wind Direction,Wind SpeedMPH,Gust SpeedMPH,PrecipitationIn,Events,Conditions,WindDirDegrees,DateUTC
12:55 AM,57.2,57.2,100,30.14,10.0,Calm,Calm,-,N/A,,Partly Cloudy,0,2012-10-04 05:55:00
1:55 AM,57.2,55.4,94,30.15,10.0,Calm,Calm,-,N/A,,Clear,0,2012-10-04 06:55:00
2:15 AM,57.2,55.4,94,30.15,10.0,Calm,Calm,-,N/A,,Clear,0,2012-10-04 07:15:00
2:35 AM,55.4,55.4,100,30.15,10.0,Calm,Calm,-,N/A,,Clear,0,2012-10-04 07:35:00
2:55 AM,55.4,55.4,100,30.15,10.0,Calm,Calm,-,N/A,,Clear,0,2012-10-04 07:55:00
3:15 AM,57.2,55.4,94,30.15,10.0,Calm,Calm,-,N/A,,Clear,0,2012-10-04 08:15:00
3:35 AM,57.2,55.4,94,30.15,9.0,Calm,Calm,-,N/A,,Clear,0,2012-10-04 08:35:00
3:55 AM,57.2,55.4,94,30.16,10.0,Calm,Calm,-,N/A,,Clear,0,2012-10-04 08:55:00
4:55 AM,55.4,55.4,100,30.18,10.0,Calm,Calm,-,N/A,,Clear,0,2012-10-04 09:55:00
5:55 AM,55.4,55.4,100,30.20,9.0,Calm,Calm,-,N/A,,Clear,0,2012-10-04 10:55:00
6:55 AM,55.4,55.4,100,30.21,10.0,Calm,Calm,-,N/A,,Clear,0,2012-10-04 11:55:00
7:55 AM,59.0,57.2,94,30.22,10.0,Calm,Calm,-,N/A,,Clear,0,2012-10-04 12:55:00
8:55 AM,64.4,60.8,88,30.23,10.0,SSE,3.5,-,N/A,,Clear,150,2012-10-04 13:55:00
9:55 AM,71.6,64.4,78,30.24,10.0,SW,4.6,-,N/A,,Clear,230,2012-10-04 14:55:00
10:55 AM,75.2,64.4,69,30.25,10.0,SSW,4.6,-,N/A,,Clear,200,2012-10-04 15:55:00
11:55 AM,80.6,64.4,58,30.24,10.0,SSW,5.8,-,N/A,,Scattered Clouds,200,2012-10-04 16:55:00
12:55 PM,80.6,62.6,54,30.22,10.0,SW,4.6,-,N/A,,Scattered Clouds,230,2012-10-04 17:55:00
1:55 PM,82.4,62.6,51,30.19,10.0,SSW,6.9,-,N/A,,Scattered Clouds,200,2012-10-04 18:55:00
2:55 PM,82.4,60.8,48,30.17,10.0,SW,4.6,-,N/A,,Scattered Clouds,230,2012-10-04 19:55:00
3:55 PM,82.4,60.8,48,30.16,10.0,SSW,8.1,-,N/A,,Scattered Clouds,210,2012-10-04 20:55:00
4:55 PM,82.4,59.0,45,30.15,10.0,SSE,4.6,-,N/A,,Partly Cloudy,160,2012-10-04 21:55:00
5:55 PM,78.8,59.0,51,30.15,10.0,Variable,3.5,-,N/A,,Partly Cloudy,0,2012-10-04 22:55:00
6:55 PM,71.6,60.8,69,30.15,10.0,Calm,Calm,-,N/A,,Partly Cloudy,0,2012-10-04 23:55:00
7:55 PM,66.2,60.8,83,30.16,10.0,Calm,Calm,-,N/A,,Partly Cloudy,0,2012-10-05 00:55:00
8:55 PM,64.4,62.6,94,30.17,10.0,Calm,Calm,-,N/A,,Scattered Clouds,0,2012-10-05 01:55:00
9:55 PM,62.6,60.8,94,30.18,10.0,Calm,Calm,-,N/A,,Scattered Clouds,0,2012-10-05 02:55:00
10:55 PM,62.6,60.8,94,30.19,10.0,Calm,Calm,-,N/A,,Partly Cloudy,0,2012-10-05 03:55:00
11:55 PM,62.6,60.8,94,30.18,10.0,Calm,Calm,-,N/A,,Partly Cloudy,0,2012-10-05 04:55:00